This is the latest recevied weather packets stored in our database for station/object DC1MAK-13. If no packets are shown the sender has not sent any weather packets the latest 10 day(s).
| Time | Temp. | Humidity | Pressure | Rain* | Wind** | Luminosity | Snow |
|---|---|---|---|---|---|---|---|
| 1777573145 | 12.78° C | 28% | 993.7 hPa | - | - | - | - |
| 1777572539 | 12.78° C | 28% | 993.6 hPa | - | - | - | - |
| 1777570719 | 14.44° C | 26% | 993.5 hPa | - | - | - | - |
| 1777569805 | 20.56° C | 19% | 993.5 hPa | - | - | - | - |
| 1777568591 | 23.33° C | 16% | 993.5 hPa | - | - | - | - |
| 1777568287 | 23.33° C | 17% | 993.5 hPa | - | - | - | - |
| 1777567073 | 23.33° C | 17% | 993.5 hPa | - | - | - | - |
| 1777564644 | 18.33° C | 23% | 993.2 hPa | - | - | - | - |
| 1777563126 | 20° C | 20% | 993.3 hPa | - | - | - | - |
| 1777562219 | 20.56° C | 21% | 993.2 hPa | - | - | - | - |
| 1777559483 | 17.22° C | 23% | 993.4 hPa | - | - | - | - |
| 1777557359 | 16.11° C | 24% | 993.5 hPa | - | - | - | - |
| 1777557059 | 16.67° C | 24% | 993.4 hPa | - | - | - | - |
| 1777556447 | 16.11° C | 22% | 993.5 hPa | - | - | - | - |
| 1777555539 | 16.11° C | 25% | 993.4 hPa | - | - | - | - |
| 1777554929 | 15.56° C | 24% | 993.4 hPa | - | - | - | - |
| 1777554626 | 15.56° C | 24% | 993.4 hPa | - | - | - | - |
| 1777554019 | 16.11° C | 24% | 993.6 hPa | - | - | - | - |
| 1777553719 | 15.56° C | 24% | 993.5 hPa | - | - | - | - |
| 1777553411 | 15.56° C | 24% | 993.6 hPa | - | - | - | - |
| 1777552199 | 15.56° C | 25% | 993.7 hPa | - | - | - | - |
| 1777551893 | 15° C | 24% | 993.6 hPa | - | - | - | - |
| 1777551589 | 14.44° C | 25% | 993.5 hPa | - | - | - | - |
| 1777551286 | 15° C | 26% | 993.6 hPa | - | - | - | - |
| 1777550379 | 13.89° C | 27% | 993.6 hPa | - | - | - | - |
* Rain since midnight (hover to see other rain measurements)
** Current wind speed in m/s (hover to see current wind gust speed)